cloudbaseCU.php : Version 1.5 - copyright 2013 Silver Acorn Limited
Date/Time : Mon, 06 Apr 2020 01:58:03 (Night)
Time Zone : Europe/London (GMT+1 hours)
INPUT ITEM: RAW DATA -> DERIVED
    Current temp : 9.8 -> 9.8 °C
    Dewpoint : 9.0 -> 9.0 °C
    Rain Fall : 0.0 -> 0.0 mm
    Barometer : 998.3 -> 998 hPa
    Humidity : 35 -> 35 %
    Wind Speed : 1.8 -> 1.8 mph
    Wind Dir : 186.0 -> 186.0 degrees
    Cloud Altitude : 320 -> 320 ft (AGL)
    Latitude : 54 -> N = Northern Hemisphere
    Season : -> Spring
    Moon Age : 12 -> 12 days
    Is daylight : 0 -> Night
    Realtime file Interval : 15 -> 15 Seconds
    Tag file time Interval : 5 -> 5 Minutes
CUMULUS CONDITIONS
    Cumulus conditions not in use
    Zambretti # : 0 -> 0
METAR CONDITONS - Metar Times UNC, Update Station times based on timezone setting
    $pathToMetFile : ./cache/
    Metar - Rawdata : 2020/04/06 00:20 EGAC 060020Z AUTO 20017KT 9999 FEW037/// 11/09 Q0997
    Metar - Trimmed : 060020Z AUTO 20017KT 9999 FEW037 11/09 Q0997
    Metar - Decoded : Not Raining; Partly Cloudy
    Now : 1586134683 seconds or Station Time of 01:58:03
    Metar report timestamp : 1586132400 seconds
    Age of File : 38.05 minutes
    When to update Metar : 1586134740 seconds (When station time ~ 01:59:00)
        (Metar report timestamp plus 39 mins refresh time)
    Next Download in : 0.95 Minutes (if  '-' then refresh page, if still '-' then download overdue!)
    Metar file : Existing file re-used
    Note:- Metar updates are usually Hourly unless AUTO when they may update every 30 minutes
OUTPUT DATA

    $showAGLASL : true
Cloud Temp : 8 °C
Background image file name : ./images/cb/cb-bg-00sprn.png
    $useWXrain : true
    $tagint : 5
    Last rain : 47 minutes ago
    $wxrain : false
"useWXrain" results :-
    No rain in last 5 minutes -> Not raining
SETTINGS
    $realtime : cloudbase.txt
    $metarICAO : EGAC
    $pathToMetFile : ./cache/
    $tz : Europe/London - The setting in this script, may be overidden by the Saratoga SITE setting
    $pathToImages : ./images/cb/
    $pathToMoonImages : ./images/cb/moon/
    $translate : true
    $switchSeasons : true
    $showCldSource : true
    $showCloudTemp : true
    $showCaption : true
    $showMoon : true
    $showScale : true
    $showWinsock : false
    $showWindDir : false
    $showWindSpd : false
    $showTemp : false
    $showHumidity : false
    $showBaro : false
    $alwaysShowCloud : false
    $useCUHeight : false
    $getMetar : true
    $metarRefresh : true
    $useMetarAtNight : true
    $onlyUseMetar : true
    $reportMistAt : 25 ft
    $stationAltitude : 0 ft